EDLI 192307Z 30004KT 9999 ///062 20/16 Q1014

Wind aktuell: 300° mit 4 kt

Wind 10 Minuten extrem:

290° bis 320° mit 3 kt bis 5 kt

Seitenwindkomponente: -0.8 kt

Wolkengrenze 1: 6200

Wolkengrenze 2: keine

Wolkengrenze 3: keine

Sichtweite: 20.000 Meter

Vorheriges Wetter:

Aktuelles Wetter:

Temperatur: 19.9 °C

Taupunkt: 16.7 °C

Luftfeuchtigkeit: 81%

QNH: 1014 hPa 

QFE: 998 hPa

Diese Daten werden automatisch ermittelt bzw. übertragen und sind nicht geprüft. Für die Richtigkeit wird daher keine Gewähr übernommen. Sie ersetzen im übrigen nicht die Flugwetterberatung. Alle Zeitangaben beziehen sich auf UTC. Die Seite wird einmal die Minute aktualisiert! Sollten Sie ein ältere Seite haben, so drücken Sie bitte auf den Reload Button Ihres Browsers!